sensor_id;sensor_type;location;lat;lon;timestamp;P1;durP1;ratioP1;P2;durP2;ratioP2
56830;SDS011;42713;42.676;23.352;2023-07-13T00:00:23;13.77;;;5.10;;
56830;SDS011;42713;42.676;23.352;2023-07-13T00:02:49;9.95;;;3.45;;
56830;SDS011;42713;42.676;23.352;2023-07-13T00:05:14;9.68;;;4.40;;
56830;SDS011;42713;42.676;23.352;2023-07-13T00:07:40;11.63;;;4.75;;
56830;SDS011;42713;42.676;23.352;2023-07-13T00:10:05;10.63;;;4.25;;
56830;SDS011;42713;42.676;23.352;2023-07-13T00:12:37;10.50;;;4.00;;
56830;SDS011;42713;42.676;23.352;2023-07-13T00:15:05;9.93;;;3.92;;
56830;SDS011;42713;42.676;23.352;2023-07-13T00:17:34;11.38;;;3.97;;
56830;SDS011;42713;42.676;23.352;2023-07-13T00:20:00;13.02;;;4.47;;
56830;SDS011;42713;42.676;23.352;2023-07-13T00:22:26;10.10;;;4.05;;
56830;SDS011;42713;42.676;23.352;2023-07-13T00:24:52;11.10;;;4.65;;
56830;SDS011;42713;42.676;23.352;2023-07-13T00:27:20;11.02;;;4.30;;
56830;SDS011;42713;42.676;23.352;2023-07-13T00:29:46;10.52;;;4.80;;
56830;SDS011;42713;42.676;23.352;2023-07-13T00:32:11;10.02;;;4.07;;
56830;SDS011;42713;42.676;23.352;2023-07-13T00:34:37;11.18;;;3.80;;
56830;SDS011;42713;42.676;23.352;2023-07-13T00:37:04;9.80;;;4.35;;
56830;SDS011;42713;42.676;23.352;2023-07-13T00:42:00;8.27;;;4.30;;
56830;SDS011;42713;42.676;23.352;2023-07-13T00:44:26;10.50;;;4.40;;
56830;SDS011;42713;42.676;23.352;2023-07-13T00:46:51;12.70;;;4.60;;
56830;SDS011;42713;42.676;23.352;2023-07-13T00:49:20;11.82;;;4.72;;
56830;SDS011;42713;42.676;23.352;2023-07-13T00:51:52;10.82;;;4.78;;
56830;SDS011;42713;42.676;23.352;2023-07-13T00:54:23;10.13;;;4.40;;
56830;SDS011;42713;42.676;23.352;2023-07-13T00:56:53;14.10;;;4.65;;
56830;SDS011;42713;42.676;23.352;2023-07-13T00:59:22;12.93;;;5.13;;
56830;SDS011;42713;42.676;23.352;2023-07-13T01:01:49;11.60;;;4.82;;
56830;SDS011;42713;42.676;23.352;2023-07-13T01:04:14;10.52;;;5.35;;
56830;SDS011;42713;42.676;23.352;2023-07-13T01:06:40;16.15;;;5.10;;
56830;SDS011;42713;42.676;23.352;2023-07-13T01:09:09;9.65;;;5.47;;
56830;SDS011;42713;42.676;23.352;2023-07-13T01:11:35;17.70;;;5.88;;
56830;SDS011;42713;42.676;23.352;2023-07-13T01:14:00;11.35;;;5.25;;
56830;SDS011;42713;42.676;23.352;2023-07-13T01:16:29;12.00;;;5.25;;
56830;SDS011;42713;42.676;23.352;2023-07-13T01:18:58;14.15;;;5.38;;
56830;SDS011;42713;42.676;23.352;2023-07-13T01:21:28;13.48;;;4.90;;
56830;SDS011;42713;42.676;23.352;2023-07-13T01:23:55;13.32;;;5.20;;
56830;SDS011;42713;42.676;23.352;2023-07-13T01:26:21;12.35;;;5.65;;
56830;SDS011;42713;42.676;23.352;2023-07-13T01:28:46;16.77;;;6.03;;
56830;SDS011;42713;42.676;23.352;2023-07-13T01:31:12;13.65;;;5.38;;
56830;SDS011;42713;42.676;23.352;2023-07-13T01:33:39;12.15;;;5.40;;
56830;SDS011;42713;42.676;23.352;2023-07-13T01:36:06;12.15;;;5.30;;
56830;SDS011;42713;42.676;23.352;2023-07-13T01:38:33;10.13;;;4.90;;
56830;SDS011;42713;42.676;23.352;2023-07-13T01:41:00;12.43;;;4.85;;
56830;SDS011;42713;42.676;23.352;2023-07-13T01:43:25;13.07;;;5.15;;
56830;SDS011;42713;42.676;23.352;2023-07-13T01:45:51;11.73;;;5.22;;
56830;SDS011;42713;42.676;23.352;2023-07-13T01:48:17;12.65;;;5.03;;
56830;SDS011;42713;42.676;23.352;2023-07-13T01:50:42;11.82;;;4.80;;
56830;SDS011;42713;42.676;23.352;2023-07-13T01:53:08;11.25;;;4.97;;
56830;SDS011;42713;42.676;23.352;2023-07-13T01:55:34;10.27;;;4.72;;
56830;SDS011;42713;42.676;23.352;2023-07-13T01:58:01;10.15;;;4.78;;
56830;SDS011;42713;42.676;23.352;2023-07-13T02:00:28;13.82;;;5.30;;
56830;SDS011;42713;42.676;23.352;2023-07-13T02:02:53;14.80;;;5.00;;
56830;SDS011;42713;42.676;23.352;2023-07-13T02:05:20;11.00;;;4.95;;
56830;SDS011;42713;42.676;23.352;2023-07-13T02:07:46;13.65;;;4.53;;
56830;SDS011;42713;42.676;23.352;2023-07-13T02:10:12;12.25;;;5.00;;
56830;SDS011;42713;42.676;23.352;2023-07-13T02:12:37;10.55;;;4.35;;
56830;SDS011;42713;42.676;23.352;2023-07-13T02:15:04;11.38;;;4.93;;
56830;SDS011;42713;42.676;23.352;2023-07-13T02:17:30;10.40;;;4.93;;
56830;SDS011;42713;42.676;23.352;2023-07-13T02:19:56;10.60;;;4.90;;
56830;SDS011;42713;42.676;23.352;2023-07-13T02:22:21;12.02;;;4.78;;
56830;SDS011;42713;42.676;23.352;2023-07-13T02:24:47;12.57;;;4.85;;
56830;SDS011;42713;42.676;23.352;2023-07-13T02:27:13;9.45;;;4.40;;
56830;SDS011;42713;42.676;23.352;2023-07-13T02:29:39;8.85;;;4.13;;
56830;SDS011;42713;42.676;23.352;2023-07-13T02:32:04;12.38;;;4.82;;
56830;SDS011;42713;42.676;23.352;2023-07-13T02:34:30;11.15;;;5.00;;
56830;SDS011;42713;42.676;23.352;2023-07-13T02:36:58;12.13;;;4.85;;
56830;SDS011;42713;42.676;23.352;2023-07-13T02:39:23;9.40;;;4.50;;
56830;SDS011;42713;42.676;23.352;2023-07-13T02:41:49;11.02;;;5.20;;
56830;SDS011;42713;42.676;23.352;2023-07-13T02:44:14;13.80;;;4.60;;
56830;SDS011;42713;42.676;23.352;2023-07-13T02:46:41;8.63;;;4.13;;
56830;SDS011;42713;42.676;23.352;2023-07-13T02:49:09;11.45;;;4.80;;
56830;SDS011;42713;42.676;23.352;2023-07-13T02:51:35;11.20;;;4.57;;
56830;SDS011;42713;42.676;23.352;2023-07-13T02:54:01;10.77;;;4.78;;
56830;SDS011;42713;42.676;23.352;2023-07-13T02:56:29;12.90;;;5.13;;
56830;SDS011;42713;42.676;23.352;2023-07-13T02:58:56;10.57;;;4.43;;
56830;SDS011;42713;42.676;23.352;2023-07-13T03:01:22;8.60;;;4.28;;
56830;SDS011;42713;42.676;23.352;2023-07-13T03:03:49;10.38;;;4.43;;
56830;SDS011;42713;42.676;23.352;2023-07-13T03:06:16;11.25;;;6.45;;
56830;SDS011;42713;42.676;23.352;2023-07-13T03:08:42;10.70;;;5.50;;
56830;SDS011;42713;42.676;23.352;2023-07-13T03:11:08;11.82;;;5.63;;
56830;SDS011;42713;42.676;23.352;2023-07-13T03:13:37;12.45;;;5.38;;
56830;SDS011;42713;42.676;23.352;2023-07-13T03:16:04;12.73;;;6.47;;
56830;SDS011;42713;42.676;23.352;2023-07-13T03:18:30;15.43;;;7.13;;
56830;SDS011;42713;42.676;23.352;2023-07-13T03:20:56;10.75;;;5.30;;
56830;SDS011;42713;42.676;23.352;2023-07-13T03:23:22;12.95;;;4.95;;
56830;SDS011;42713;42.676;23.352;2023-07-13T03:25:48;9.30;;;4.82;;
56830;SDS011;42713;42.676;23.352;2023-07-13T03:28:14;13.63;;;5.43;;
56830;SDS011;42713;42.676;23.352;2023-07-13T03:30:39;11.85;;;4.88;;
56830;SDS011;42713;42.676;23.352;2023-07-13T03:33:05;13.13;;;5.70;;
56830;SDS011;42713;42.676;23.352;2023-07-13T03:35:34;12.15;;;5.20;;
56830;SDS011;42713;42.676;23.352;2023-07-13T03:38:00;10.93;;;4.97;;
56830;SDS011;42713;42.676;23.352;2023-07-13T03:40:27;11.52;;;5.78;;
56830;SDS011;42713;42.676;23.352;2023-07-13T03:42:53;11.40;;;5.45;;
56830;SDS011;42713;42.676;23.352;2023-07-13T03:45:18;10.88;;;5.15;;
56830;SDS011;42713;42.676;23.352;2023-07-13T03:47:44;10.73;;;5.65;;
56830;SDS011;42713;42.676;23.352;2023-07-13T03:50:10;15.30;;;5.97;;
56830;SDS011;42713;42.676;23.352;2023-07-13T03:52:36;15.93;;;6.95;;
56830;SDS011;42713;42.676;23.352;2023-07-13T03:55:02;13.30;;;6.40;;
56830;SDS011;42713;42.676;23.352;2023-07-13T03:57:27;16.13;;;6.72;;
56830;SDS011;42713;42.676;23.352;2023-07-13T03:59:53;15.20;;;7.07;;
56830;SDS011;42713;42.676;23.352;2023-07-13T04:02:20;13.95;;;7.03;;
56830;SDS011;42713;42.676;23.352;2023-07-13T04:04:46;14.02;;;7.28;;
56830;SDS011;42713;42.676;23.352;2023-07-13T04:07:11;13.93;;;7.35;;
56830;SDS011;42713;42.676;23.352;2023-07-13T04:09:37;11.85;;;6.55;;
56830;SDS011;42713;42.676;23.352;2023-07-13T04:12:03;13.70;;;7.28;;
56830;SDS011;42713;42.676;23.352;2023-07-13T04:14:28;13.40;;;7.43;;
56830;SDS011;42713;42.676;23.352;2023-07-13T04:16:54;12.38;;;7.03;;
56830;SDS011;42713;42.676;23.352;2023-07-13T04:19:20;14.60;;;6.80;;
56830;SDS011;42713;42.676;23.352;2023-07-13T04:21:45;13.13;;;7.45;;
56830;SDS011;42713;42.676;23.352;2023-07-13T04:24:12;18.63;;;7.45;;
56830;SDS011;42713;42.676;23.352;2023-07-13T04:26:37;13.27;;;6.63;;
56830;SDS011;42713;42.676;23.352;2023-07-13T04:29:03;17.23;;;7.63;;
56830;SDS011;42713;42.676;23.352;2023-07-13T04:31:30;13.75;;;7.25;;
56830;SDS011;42713;42.676;23.352;2023-07-13T04:33:56;14.98;;;6.80;;
56830;SDS011;42713;42.676;23.352;2023-07-13T04:36:22;11.23;;;6.28;;
56830;SDS011;42713;42.676;23.352;2023-07-13T04:38:47;13.50;;;6.22;;
56830;SDS011;42713;42.676;23.352;2023-07-13T04:41:14;11.70;;;6.40;;
56830;SDS011;42713;42.676;23.352;2023-07-13T04:43:40;21.77;;;7.28;;
56830;SDS011;42713;42.676;23.352;2023-07-13T04:46:07;14.93;;;6.07;;
56830;SDS011;42713;42.676;23.352;2023-07-13T04:48:36;12.23;;;6.40;;
56830;SDS011;42713;42.676;23.352;2023-07-13T04:51:10;13.75;;;5.95;;
56830;SDS011;42713;42.676;23.352;2023-07-13T04:53:36;17.42;;;6.95;;
56830;SDS011;42713;42.676;23.352;2023-07-13T04:56:02;16.40;;;6.43;;
56830;SDS011;42713;42.676;23.352;2023-07-13T04:58:28;13.50;;;6.45;;
56830;SDS011;42713;42.676;23.352;2023-07-13T05:00:59;14.80;;;6.72;;
56830;SDS011;42713;42.676;23.352;2023-07-13T05:03:25;14.32;;;6.43;;
56830;SDS011;42713;42.676;23.352;2023-07-13T05:05:58;12.35;;;6.50;;
56830;SDS011;42713;42.676;23.352;2023-07-13T05:08:25;11.00;;;5.68;;
56830;SDS011;42713;42.676;23.352;2023-07-13T05:10:51;11.35;;;6.53;;
56830;SDS011;42713;42.676;23.352;2023-07-13T05:13:17;14.82;;;6.68;;
56830;SDS011;42713;42.676;23.352;2023-07-13T05:15:42;14.40;;;6.65;;
56830;SDS011;42713;42.676;23.352;2023-07-13T05:18:08;12.23;;;6.93;;
56830;SDS011;42713;42.676;23.352;2023-07-13T05:20:33;13.50;;;7.32;;
56830;SDS011;42713;42.676;23.352;2023-07-13T05:22:59;18.65;;;7.82;;
56830;SDS011;42713;42.676;23.352;2023-07-13T05:25:24;13.80;;;7.55;;
56830;SDS011;42713;42.676;23.352;2023-07-13T05:27:50;17.13;;;8.15;;
56830;SDS011;42713;42.676;23.352;2023-07-13T05:30:15;14.40;;;7.88;;
56830;SDS011;42713;42.676;23.352;2023-07-13T05:32:41;17.38;;;7.80;;
56830;SDS011;42713;42.676;23.352;2023-07-13T05:35:07;16.60;;;8.65;;
56830;SDS011;42713;42.676;23.352;2023-07-13T05:37:33;15.65;;;7.70;;
56830;SDS011;42713;42.676;23.352;2023-07-13T05:39:58;15.48;;;8.25;;
56830;SDS011;42713;42.676;23.352;2023-07-13T05:42:24;18.83;;;10.02;;
56830;SDS011;42713;42.676;23.352;2023-07-13T05:44:49;23.38;;;9.32;;
56830;SDS011;42713;42.676;23.352;2023-07-13T05:47:15;19.92;;;11.07;;
56830;SDS011;42713;42.676;23.352;2023-07-13T05:49:40;17.42;;;9.35;;
56830;SDS011;42713;42.676;23.352;2023-07-13T05:52:06;21.23;;;8.13;;
56830;SDS011;42713;42.676;23.352;2023-07-13T05:54:32;14.77;;;7.20;;
56830;SDS011;42713;42.676;23.352;2023-07-13T05:56:57;18.23;;;7.50;;
56830;SDS011;42713;42.676;23.352;2023-07-13T05:59:23;16.08;;;7.53;;
56830;SDS011;42713;42.676;23.352;2023-07-13T06:01:48;16.38;;;7.65;;
56830;SDS011;42713;42.676;23.352;2023-07-13T06:04:14;14.05;;;7.13;;
56830;SDS011;42713;42.676;23.352;2023-07-13T06:06:40;16.08;;;8.07;;
56830;SDS011;42713;42.676;23.352;2023-07-13T06:09:05;15.18;;;7.97;;
56830;SDS011;42713;42.676;23.352;2023-07-13T06:11:30;27.08;;;13.27;;
56830;SDS011;42713;42.676;23.352;2023-07-13T06:13:56;18.85;;;8.77;;
56830;SDS011;42713;42.676;23.352;2023-07-13T06:16:22;16.88;;;9.98;;
56830;SDS011;42713;42.676;23.352;2023-07-13T06:18:50;16.67;;;7.38;;
56830;SDS011;42713;42.676;23.352;2023-07-13T06:21:17;15.05;;;7.30;;
56830;SDS011;42713;42.676;23.352;2023-07-13T06:23:45;14.90;;;6.88;;
56830;SDS011;42713;42.676;23.352;2023-07-13T06:26:15;15.13;;;7.30;;
56830;SDS011;42713;42.676;23.352;2023-07-13T06:28:41;13.40;;;7.15;;
56830;SDS011;42713;42.676;23.352;2023-07-13T06:31:10;17.17;;;6.93;;
56830;SDS011;42713;42.676;23.352;2023-07-13T06:33:37;12.57;;;6.63;;
56830;SDS011;42713;42.676;23.352;2023-07-13T06:36:06;16.20;;;7.22;;
56830;SDS011;42713;42.676;23.352;2023-07-13T06:38:33;16.13;;;6.97;;
56830;SDS011;42713;42.676;23.352;2023-07-13T06:40:58;13.68;;;6.90;;
56830;SDS011;42713;42.676;23.352;2023-07-13T06:43:24;13.85;;;6.40;;
56830;SDS011;42713;42.676;23.352;2023-07-13T06:45:50;14.85;;;7.20;;
56830;SDS011;42713;42.676;23.352;2023-07-13T06:48:16;15.70;;;7.68;;
56830;SDS011;42713;42.676;23.352;2023-07-13T06:50:43;15.63;;;6.65;;
56830;SDS011;42713;42.676;23.352;2023-07-13T06:53:10;15.32;;;8.82;;
56830;SDS011;42713;42.676;23.352;2023-07-13T06:55:36;18.25;;;8.18;;
56830;SDS011;42713;42.676;23.352;2023-07-13T06:58:02;13.73;;;6.32;;
56830;SDS011;42713;42.676;23.352;2023-07-13T07:00:28;17.92;;;6.97;;
56830;SDS011;42713;42.676;23.352;2023-07-13T07:02:54;16.95;;;6.95;;
56830;SDS011;42713;42.676;23.352;2023-07-13T07:05:19;15.25;;;6.38;;
56830;SDS011;42713;42.676;23.352;2023-07-13T07:07:47;15.80;;;6.07;;
56830;SDS011;42713;42.676;23.352;2023-07-13T07:10:13;14.38;;;6.80;;
56830;SDS011;42713;42.676;23.352;2023-07-13T07:12:38;16.23;;;7.07;;
56830;SDS011;42713;42.676;23.352;2023-07-13T07:15:04;16.48;;;6.47;;
56830;SDS011;42713;42.676;23.352;2023-07-13T07:17:30;13.48;;;6.75;;
56830;SDS011;42713;42.676;23.352;2023-07-13T07:19:55;13.23;;;6.90;;
56830;SDS011;42713;42.676;23.352;2023-07-13T07:22:21;16.70;;;7.07;;
56830;SDS011;42713;42.676;23.352;2023-07-13T07:24:46;15.18;;;6.70;;
56830;SDS011;42713;42.676;23.352;2023-07-13T07:27:12;14.35;;;7.05;;
56830;SDS011;42713;42.676;23.352;2023-07-13T07:29:37;15.55;;;7.15;;
56830;SDS011;42713;42.676;23.352;2023-07-13T07:32:03;14.85;;;6.80;;
56830;SDS011;42713;42.676;23.352;2023-07-13T07:34:29;13.65;;;6.93;;
56830;SDS011;42713;42.676;23.352;2023-07-13T07:37:00;13.63;;;6.88;;
56830;SDS011;42713;42.676;23.352;2023-07-13T07:39:26;19.92;;;6.95;;
56830;SDS011;42713;42.676;23.352;2023-07-13T07:41:51;17.60;;;6.88;;
56830;SDS011;42713;42.676;23.352;2023-07-13T07:44:17;16.38;;;7.18;;
56830;SDS011;42713;42.676;23.352;2023-07-13T07:46:46;14.43;;;7.38;;
56830;SDS011;42713;42.676;23.352;2023-07-13T07:49:11;18.17;;;6.40;;
56830;SDS011;42713;42.676;23.352;2023-07-13T07:51:37;17.08;;;6.93;;
56830;SDS011;42713;42.676;23.352;2023-07-13T07:54:03;15.85;;;6.28;;
56830;SDS011;42713;42.676;23.352;2023-07-13T07:56:29;14.40;;;6.30;;
56830;SDS011;42713;42.676;23.352;2023-07-13T07:58:54;18.63;;;7.10;;
56830;SDS011;42713;42.676;23.352;2023-07-13T08:01:20;14.15;;;6.90;;
56830;SDS011;42713;42.676;23.352;2023-07-13T08:03:45;16.15;;;6.55;;
56830;SDS011;42713;42.676;23.352;2023-07-13T08:06:11;13.43;;;6.90;;
56830;SDS011;42713;42.676;23.352;2023-07-13T08:08:36;14.35;;;6.80;;
56830;SDS011;42713;42.676;23.352;2023-07-13T08:11:02;14.65;;;6.65;;
56830;SDS011;42713;42.676;23.352;2023-07-13T08:13:29;15.57;;;7.03;;
56830;SDS011;42713;42.676;23.352;2023-07-13T08:15:54;20.00;;;6.90;;
56830;SDS011;42713;42.676;23.352;2023-07-13T08:18:20;17.75;;;6.65;;
56830;SDS011;42713;42.676;23.352;2023-07-13T08:20:45;19.48;;;7.78;;
56830;SDS011;42713;42.676;23.352;2023-07-13T08:23:11;16.48;;;7.63;;
56830;SDS011;42713;42.676;23.352;2023-07-13T08:25:37;18.40;;;7.88;;
56830;SDS011;42713;42.676;23.352;2023-07-13T08:28:02;15.35;;;7.40;;
56830;SDS011;42713;42.676;23.352;2023-07-13T08:30:29;20.45;;;7.60;;
56830;SDS011;42713;42.676;23.352;2023-07-13T08:32:54;21.92;;;7.22;;
56830;SDS011;42713;42.676;23.352;2023-07-13T08:35:20;18.73;;;7.68;;
56830;SDS011;42713;42.676;23.352;2023-07-13T08:37:53;19.40;;;7.65;;
56830;SDS011;42713;42.676;23.352;2023-07-13T08:40:19;15.43;;;6.85;;
56830;SDS011;42713;42.676;23.352;2023-07-13T08:42:55;24.73;;;7.43;;
56830;SDS011;42713;42.676;23.352;2023-07-13T08:45:40;15.93;;;7.38;;
56830;SDS011;42713;42.676;23.352;2023-07-13T08:48:48;18.95;;;7.25;;
56830;SDS011;42713;42.676;23.352;2023-07-13T08:51:59;14.05;;;6.68;;
56830;SDS011;42713;42.676;23.352;2023-07-13T08:54:33;16.25;;;7.68;;
56830;SDS011;42713;42.676;23.352;2023-07-13T09:00:47;22.65;;;6.90;;
56830;SDS011;42713;42.676;23.352;2023-07-13T09:03:22;19.63;;;7.25;;
56830;SDS011;42713;42.676;23.352;2023-07-13T09:06:01;15.38;;;6.75;;
56830;SDS011;42713;42.676;23.352;2023-07-13T09:17:10;14.27;;;7.80;;
56830;SDS011;42713;42.676;23.352;2023-07-13T09:19:39;19.88;;;8.07;;
56830;SDS011;42713;42.676;23.352;2023-07-13T09:22:06;18.83;;;7.05;;
56830;SDS011;42713;42.676;23.352;2023-07-13T09:24:41;16.45;;;6.90;;
56830;SDS011;42713;42.676;23.352;2023-07-13T09:27:21;19.08;;;8.10;;
56830;SDS011;42713;42.676;23.352;2023-07-13T09:30:09;16.30;;;6.80;;
56830;SDS011;42713;42.676;23.352;2023-07-13T09:32:45;12.27;;;6.53;;
56830;SDS011;42713;42.676;23.352;2023-07-13T09:35:16;19.63;;;6.88;;
56830;SDS011;42713;42.676;23.352;2023-07-13T09:37:49;15.43;;;6.68;;
56830;SDS011;42713;42.676;23.352;2023-07-13T09:40:28;13.63;;;6.82;;
56830;SDS011;42713;42.676;23.352;2023-07-13T09:43:14;12.95;;;7.30;;
56830;SDS011;42713;42.676;23.352;2023-07-13T09:45:42;14.02;;;6.70;;
56830;SDS011;42713;42.676;23.352;2023-07-13T09:48:11;14.90;;;6.80;;
56830;SDS011;42713;42.676;23.352;2023-07-13T09:50:38;17.02;;;6.80;;
56830;SDS011;42713;42.676;23.352;2023-07-13T09:53:10;19.85;;;7.80;;
56830;SDS011;42713;42.676;23.352;2023-07-13T09:55:41;13.07;;;6.88;;
56830;SDS011;42713;42.676;23.352;2023-07-13T09:58:13;17.65;;;7.50;;
56830;SDS011;42713;42.676;23.352;2023-07-13T10:00:42;16.33;;;7.68;;
56830;SDS011;42713;42.676;23.352;2023-07-13T10:05:49;17.33;;;7.53;;
56830;SDS011;42713;42.676;23.352;2023-07-13T10:08:17;14.23;;;6.95;;
56830;SDS011;42713;42.676;23.352;2023-07-13T10:10:52;20.77;;;7.43;;
56830;SDS011;42713;42.676;23.352;2023-07-13T10:13:36;19.38;;;7.32;;
56830;SDS011;42713;42.676;23.352;2023-07-13T10:16:06;19.70;;;7.93;;
56830;SDS011;42713;42.676;23.352;2023-07-13T10:18:37;16.90;;;7.55;;
56830;SDS011;42713;42.676;23.352;2023-07-13T10:23:43;16.85;;;7.75;;
56830;SDS011;42713;42.676;23.352;2023-07-13T10:26:15;21.25;;;7.43;;
56830;SDS011;42713;42.676;23.352;2023-07-13T10:28:45;21.80;;;6.75;;
56830;SDS011;42713;42.676;23.352;2023-07-13T10:31:15;24.45;;;6.47;;
56830;SDS011;42713;42.676;23.352;2023-07-13T10:33:42;12.90;;;6.35;;
56830;SDS011;42713;42.676;23.352;2023-07-13T10:36:23;10.60;;;5.68;;
56830;SDS011;42713;42.676;23.352;2023-07-13T10:39:17;11.63;;;5.90;;
56830;SDS011;42713;42.676;23.352;2023-07-13T10:41:46;18.20;;;4.90;;
56830;SDS011;42713;42.676;23.352;2023-07-13T10:44:35;14.93;;;4.90;;
56830;SDS011;42713;42.676;23.352;2023-07-13T10:47:02;10.15;;;4.60;;
56830;SDS011;42713;42.676;23.352;2023-07-13T10:49:34;12.82;;;4.03;;
56830;SDS011;42713;42.676;23.352;2023-07-13T10:52:01;15.07;;;4.43;;
56830;SDS011;42713;42.676;23.352;2023-07-13T10:54:36;8.88;;;4.05;;
56830;SDS011;42713;42.676;23.352;2023-07-13T10:57:21;12.45;;;4.68;;
56830;SDS011;42713;42.676;23.352;2023-07-13T11:02:29;13.20;;;4.05;;
56830;SDS011;42713;42.676;23.352;2023-07-13T11:04:55;10.40;;;4.40;;
56830;SDS011;42713;42.676;23.352;2023-07-13T11:09:58;12.02;;;3.95;;
56830;SDS011;42713;42.676;23.352;2023-07-13T11:22:45;12.27;;;4.28;;
56830;SDS011;42713;42.676;23.352;2023-07-13T11:25:31;14.27;;;4.35;;
56830;SDS011;42713;42.676;23.352;2023-07-13T11:30:47;13.90;;;4.32;;
56830;SDS011;42713;42.676;23.352;2023-07-13T11:36:12;16.58;;;4.63;;
56830;SDS011;42713;42.676;23.352;2023-07-13T11:38:43;10.77;;;3.88;;
56830;SDS011;42713;42.676;23.352;2023-07-13T11:41:21;14.15;;;4.40;;
56830;SDS011;42713;42.676;23.352;2023-07-13T11:43:50;10.90;;;4.20;;
56830;SDS011;42713;42.676;23.352;2023-07-13T11:46:23;12.73;;;4.43;;
56830;SDS011;42713;42.676;23.352;2023-07-13T11:48:52;16.88;;;4.55;;
56830;SDS011;42713;42.676;23.352;2023-07-13T11:51:20;10.60;;;4.30;;
56830;SDS011;42713;42.676;23.352;2023-07-13T11:53:57;11.35;;;4.65;;
56830;SDS011;42713;42.676;23.352;2023-07-13T11:56:44;10.32;;;4.35;;
56830;SDS011;42713;42.676;23.352;2023-07-13T11:59:11;10.48;;;4.53;;
56830;SDS011;42713;42.676;23.352;2023-07-13T12:01:46;13.18;;;4.75;;
56830;SDS011;42713;42.676;23.352;2023-07-13T12:04:25;15.95;;;4.63;;
56830;SDS011;42713;42.676;23.352;2023-07-13T12:07:04;15.40;;;4.72;;
56830;SDS011;42713;42.676;23.352;2023-07-13T12:09:39;10.15;;;4.47;;
56830;SDS011;42713;42.676;23.352;2023-07-13T12:12:10;16.40;;;5.00;;
56830;SDS011;42713;42.676;23.352;2023-07-13T12:14:37;12.60;;;4.68;;
56830;SDS011;42713;42.676;23.352;2023-07-13T12:17:05;9.68;;;4.07;;
56830;SDS011;42713;42.676;23.352;2023-07-13T12:19:41;11.70;;;3.92;;
56830;SDS011;42713;42.676;23.352;2023-07-13T12:22:10;13.45;;;4.53;;
56830;SDS011;42713;42.676;23.352;2023-07-13T12:24:38;10.40;;;4.10;;
56830;SDS011;42713;42.676;23.352;2023-07-13T12:27:06;20.83;;;4.35;;
56830;SDS011;42713;42.676;23.352;2023-07-13T12:29:58;11.82;;;4.28;;
56830;SDS011;42713;42.676;23.352;2023-07-13T12:32:26;14.73;;;4.15;;
56830;SDS011;42713;42.676;23.352;2023-07-13T12:34:56;11.38;;;4.10;;
56830;SDS011;42713;42.676;23.352;2023-07-13T12:37:33;10.45;;;3.78;;
56830;SDS011;42713;42.676;23.352;2023-07-13T12:42:27;13.18;;;4.60;;
56830;SDS011;42713;42.676;23.352;2023-07-13T12:45:01;11.07;;;3.97;;
56830;SDS011;42713;42.676;23.352;2023-07-13T12:47:32;12.55;;;4.07;;
56830;SDS011;42713;42.676;23.352;2023-07-13T12:50:12;12.45;;;4.30;;
56830;SDS011;42713;42.676;23.352;2023-07-13T12:52:44;12.45;;;4.10;;
56830;SDS011;42713;42.676;23.352;2023-07-13T12:55:16;12.23;;;4.10;;
56830;SDS011;42713;42.676;23.352;2023-07-13T13:00:27;12.52;;;4.65;;
56830;SDS011;42713;42.676;23.352;2023-07-13T13:02:57;17.23;;;5.57;;
56830;SDS011;42713;42.676;23.352;2023-07-13T13:05:29;15.20;;;5.32;;
56830;SDS011;42713;42.676;23.352;2023-07-13T13:07:55;13.65;;;5.13;;
56830;SDS011;42713;42.676;23.352;2023-07-13T13:10:22;15.23;;;4.55;;
56830;SDS011;42713;42.676;23.352;2023-07-13T13:12:48;18.73;;;5.68;;
56830;SDS011;42713;42.676;23.352;2023-07-13T13:15:13;17.15;;;5.70;;
56830;SDS011;42713;42.676;23.352;2023-07-13T13:17:39;12.63;;;4.80;;
56830;SDS011;42713;42.676;23.352;2023-07-13T13:20:15;17.33;;;5.20;;
56830;SDS011;42713;42.676;23.352;2023-07-13T13:22:42;13.73;;;4.72;;
56830;SDS011;42713;42.676;23.352;2023-07-13T13:25:11;18.30;;;5.60;;
56830;SDS011;42713;42.676;23.352;2023-07-13T13:27:37;17.90;;;5.30;;
56830;SDS011;42713;42.676;23.352;2023-07-13T13:30:17;11.95;;;4.95;;
56830;SDS011;42713;42.676;23.352;2023-07-13T13:32:44;17.20;;;5.05;;
56830;SDS011;42713;42.676;23.352;2023-07-13T13:35:13;12.50;;;4.68;;
56830;SDS011;42713;42.676;23.352;2023-07-13T13:37:45;13.18;;;5.07;;
56830;SDS011;42713;42.676;23.352;2023-07-13T13:40:16;16.50;;;5.07;;
56830;SDS011;42713;42.676;23.352;2023-07-13T13:42:45;14.30;;;4.90;;
56830;SDS011;42713;42.676;23.352;2023-07-13T13:45:11;20.55;;;5.05;;
56830;SDS011;42713;42.676;23.352;2023-07-13T13:47:38;14.77;;;4.88;;
56830;SDS011;42713;42.676;23.352;2023-07-13T13:50:11;11.10;;;4.68;;
56830;SDS011;42713;42.676;23.352;2023-07-13T13:52:41;15.75;;;4.35;;
56830;SDS011;42713;42.676;23.352;2023-07-13T13:55:17;13.98;;;3.92;;
56830;SDS011;42713;42.676;23.352;2023-07-13T13:57:45;14.65;;;3.95;;
56830;SDS011;42713;42.676;23.352;2023-07-13T14:00:11;14.07;;;4.07;;
56830;SDS011;42713;42.676;23.352;2023-07-13T14:02:39;15.68;;;4.22;;
56830;SDS011;42713;42.676;23.352;2023-07-13T14:05:09;11.05;;;4.43;;
56830;SDS011;42713;42.676;23.352;2023-07-13T14:07:38;13.48;;;4.70;;
56830;SDS011;42713;42.676;23.352;2023-07-13T14:10:12;10.40;;;4.20;;
56830;SDS011;42713;42.676;23.352;2023-07-13T14:12:40;14.18;;;4.78;;
56830;SDS011;42713;42.676;23.352;2023-07-13T14:15:12;16.48;;;4.90;;
56830;SDS011;42713;42.676;23.352;2023-07-13T14:17:42;14.07;;;4.85;;
56830;SDS011;42713;42.676;23.352;2023-07-13T14:20:12;16.45;;;3.95;;
56830;SDS011;42713;42.676;23.352;2023-07-13T14:22:38;19.60;;;4.18;;
56830;SDS011;42713;42.676;23.352;2023-07-13T14:25:04;13.80;;;4.32;;
56830;SDS011;42713;42.676;23.352;2023-07-13T14:27:30;13.00;;;4.50;;
56830;SDS011;42713;42.676;23.352;2023-07-13T14:29:55;15.68;;;4.30;;
56830;SDS011;42713;42.676;23.352;2023-07-13T14:32:21;13.23;;;4.03;;
56830;SDS011;42713;42.676;23.352;2023-07-13T14:34:46;17.88;;;4.70;;
56830;SDS011;42713;42.676;23.352;2023-07-13T14:37:13;12.90;;;4.18;;
56830;SDS011;42713;42.676;23.352;2023-07-13T14:39:39;14.10;;;4.10;;
56830;SDS011;42713;42.676;23.352;2023-07-13T14:42:08;15.32;;;4.10;;
56830;SDS011;42713;42.676;23.352;2023-07-13T14:44:35;11.20;;;4.07;;
56830;SDS011;42713;42.676;23.352;2023-07-13T14:47:01;12.05;;;4.10;;
56830;SDS011;42713;42.676;23.352;2023-07-13T14:49:32;15.13;;;4.30;;
56830;SDS011;42713;42.676;23.352;2023-07-13T14:52:15;14.93;;;4.60;;
56830;SDS011;42713;42.676;23.352;2023-07-13T14:54:42;14.93;;;4.80;;
56830;SDS011;42713;42.676;23.352;2023-07-13T14:57:12;15.23;;;4.25;;
56830;SDS011;42713;42.676;23.352;2023-07-13T14:59:39;12.38;;;3.60;;
56830;SDS011;42713;42.676;23.352;2023-07-13T15:04:51;14.13;;;3.70;;
56830;SDS011;42713;42.676;23.352;2023-07-13T15:07:17;12.75;;;4.20;;
56830;SDS011;42713;42.676;23.352;2023-07-13T15:09:44;12.40;;;3.95;;
56830;SDS011;42713;42.676;23.352;2023-07-13T15:12:09;9.93;;;3.90;;
56830;SDS011;42713;42.676;23.352;2023-07-13T15:14:35;12.52;;;3.97;;
56830;SDS011;42713;42.676;23.352;2023-07-13T15:17:01;13.68;;;4.07;;